Avon, IL

4:00 AM CDT on November 01, 2014 (GMT -0500)
MesoWest IL-9 @ Spoon River IL US ILDOT | Change Station
CLOSE
Current Station
Personal Weather Station
Location: Ellisville, IL
Elevation: 487 ft
Nearby Weather Stations
Active Advisory: Freeze Warning

Elev 487 ft 40.57 °N, 90.30 °W | Updated 35 minutes ago

Clear
Clear
26 °F
Feels Like 26 °F
N
0
Wind Variable Wind from North
Gusts 2.0 mph

Today
High -- | Low -- °F
--% Chance of Precip.
Yesterday
High -- | Low -- °F
Precip. -- in
7:31 AM 5:58 PM
Waxing Gibbous, 64% visible
Pressure 30.47 in
Visibility 10.0 miles
Clouds Clear
Windchill 26 °F
Dew Point 20 °F
Humidity 78%
Rainfall -999.00 in
Snow Depth Not available.
UV 0 out of 12
Pollen .40 out of 12
Air Quality Not available.
Flu Activity Not available.
METAR KMQB 010835Z AUTO 35005KT 10SM CLR M05/M07 A3047 RMK AO2 T10461067

More Conditions Fewer Conditions

Pressure 30.47 in
Visibility 10.0 miles
Clouds Clear
Windchill 26 °F
Dew Point 20 °F
Humidity 78%
Rainfall -999.00 in
Snow Depth Not available.
UV 0 out of 12
Pollen .40 out of 12
Air Quality Not available.
Flu Activity Not available.
METAR KMQB 010835Z AUTO 35005KT 10SM CLR M05/M07 A3047 RMK AO2 T10461067

More Conditions Fewer Conditions

10-Day Weather Forecast

Almanac

Astronomy

Nov. 01, 2014 Rise Set
Actual Time
Civil Twilight
Nautical Twilight
Astronomical Twilight
Moon
Length of Visible Light
Length of Day
Tomorrow will be .
, % of the Moon is Illuminated

Today's Extremes

State Highs State Lows

Community

WunderPhotos

Upload Photos

1,766,871 photos uploaded!

WunderBlogs® & News

Nearby

Air Quality

  Air Quality AQ Index Pollutant
Not available.

Snow Depth

Station Depth Elevation

Earthquake Activity

City Distance Mag. Time & Date
Minimum magnitude displayed is 2.5.

Coastal Water Temperatures

Place Temperature

Nearby Weather Stations